createdAt,value
2017-08-09T00:00:20.272Z,2.7
2017-08-09T00:01:22.767Z,2.7
2017-08-09T00:02:25.284Z,2.7
2017-08-09T00:03:27.788Z,2.7
2017-08-09T00:04:30.281Z,2.6
2017-08-09T00:05:32.778Z,2.6
2017-08-09T00:06:35.272Z,2.7
2017-08-09T00:07:37.774Z,2.7
2017-08-09T00:08:40.302Z,2.6
2017-08-09T00:09:43.135Z,2.7
2017-08-09T00:10:45.622Z,2.7
2017-08-09T00:11:48.121Z,2.7
2017-08-09T00:12:50.610Z,2.7
2017-08-09T00:13:53.114Z,2.7
2017-08-09T00:14:55.957Z,2.7
2017-08-09T00:15:58.786Z,2.7
2017-08-09T00:17:01.292Z,2.7
2017-08-09T00:18:03.886Z,2.7
2017-08-09T00:19:06.380Z,2.7
2017-08-09T00:20:09.220Z,2.8
2017-08-09T00:21:12.062Z,2.8
2017-08-09T00:22:14.623Z,2.7
2017-08-09T00:23:17.811Z,2.7
2017-08-09T00:24:20.641Z,2.7
2017-08-09T00:25:23.124Z,2.7
2017-08-09T00:26:26.295Z,2.7
2017-08-09T00:27:29.143Z,2.6
2017-08-09T00:28:31.692Z,2.7
2017-08-09T00:29:34.645Z,2.6
2017-08-09T00:30:37.157Z,2.7
2017-08-09T00:31:40.336Z,2.7
2017-08-09T00:32:42.877Z,2.7
2017-08-09T00:33:45.406Z,2.7
2017-08-09T00:34:48.213Z,2.6
2017-08-09T00:35:51.053Z,2.6
2017-08-09T00:36:53.643Z,2.7
2017-08-09T00:37:56.158Z,2.6
2017-08-09T00:38:58.993Z,2.6
2017-08-09T00:40:02.176Z,2.7
2017-08-09T00:41:05.435Z,2.7
2017-08-09T00:42:08.301Z,2.7
2017-08-09T00:43:10.787Z,2.7
2017-08-09T00:44:13.277Z,2.6
2017-08-09T00:45:15.917Z,2.7
2017-08-09T00:46:18.761Z,2.7
2017-08-09T00:47:21.253Z,2.6
2017-08-09T00:48:23.748Z,2.7
2017-08-09T00:49:26.744Z,2.6
2017-08-09T00:50:29.574Z,2.6
2017-08-09T00:51:32.079Z,2.6
2017-08-09T00:52:34.782Z,2.7
2017-08-09T00:53:37.291Z,2.7
2017-08-09T00:54:39.813Z,2.7
2017-08-09T00:55:42.318Z,2.7
2017-08-09T00:56:44.829Z,2.6
2017-08-09T00:57:47.334Z,2.6
2017-08-09T00:58:49.804Z,2.6
2017-08-09T00:59:52.298Z,2.6
2017-08-09T01:00:55.142Z,2.6
2017-08-09T01:01:57.970Z,2.7
2017-08-09T01:03:00.593Z,2.7
2017-08-09T01:04:03.436Z,2.6
2017-08-09T01:05:06.284Z,2.6
2017-08-09T01:06:09.053Z,2.6
2017-08-09T01:07:11.552Z,2.6
2017-08-09T01:08:14.030Z,2.6
2017-08-09T01:09:16.862Z,2.6
2017-08-09T01:10:19.350Z,2.6
2017-08-09T01:11:21.855Z,2.6
2017-08-09T01:12:24.712Z,2.6
2017-08-09T01:13:27.226Z,2.6
2017-08-09T01:14:29.707Z,2.7
2017-08-09T01:15:32.230Z,2.6
2017-08-09T01:16:34.923Z,2.7
2017-08-09T01:17:37.410Z,2.6
2017-08-09T01:18:39.913Z,2.6
2017-08-09T01:19:42.535Z,2.6
2017-08-09T01:20:45.385Z,2.7
2017-08-09T01:21:48.563Z,2.7
2017-08-09T01:22:51.374Z,2.7
2017-08-09T01:23:53.888Z,2.6
2017-08-09T01:24:56.374Z,2.6
2017-08-09T01:25:58.865Z,2.5
2017-08-09T01:27:01.946Z,2.7
2017-08-09T01:28:05.479Z,2.6
2017-08-09T01:29:07.980Z,2.6
2017-08-09T01:30:10.833Z,2.6
2017-08-09T01:31:13.321Z,2.6
2017-08-09T01:32:15.835Z,2.6
2017-08-09T01:33:18.659Z,2.6
2017-08-09T01:34:21.159Z,2.6
2017-08-09T01:35:24.003Z,2.6
2017-08-09T01:36:26.503Z,2.6
2017-08-09T01:37:29.428Z,2.6
2017-08-09T01:38:31.920Z,2.6
2017-08-09T01:39:34.396Z,2.6
2017-08-09T01:40:37.584Z,2.6
2017-08-09T01:41:40.071Z,2.6
2017-08-09T01:42:42.564Z,2.6
2017-08-09T01:43:45.062Z,2.6
2017-08-09T01:44:48.255Z,2.5
2017-08-09T01:45:50.754Z,2.6
2017-08-09T01:46:53.257Z,2.6
2017-08-09T01:47:55.744Z,2.6
2017-08-09T01:48:58.235Z,2.6
2017-08-09T01:50:00.761Z,2.6
2017-08-09T01:51:03.721Z,2.6
2017-08-09T01:52:06.210Z,2.6
2017-08-09T01:53:09.056Z,2.6
2017-08-09T01:54:11.996Z,2.6
2017-08-09T01:55:14.495Z,2.6
2017-08-09T01:56:16.984Z,2.6
2017-08-09T01:57:19.478Z,2.6
2017-08-09T01:58:21.990Z,2.6
2017-08-09T01:59:24.486Z,2.7
2017-08-09T02:00:27.332Z,2.6
2017-08-09T02:01:29.825Z,2.6
2017-08-09T02:02:32.671Z,2.6
2017-08-09T02:03:35.512Z,2.6
2017-08-09T02:04:38.484Z,2.6
2017-08-09T02:05:40.970Z,2.6
2017-08-09T02:06:43.468Z,2.6
2017-08-09T02:07:45.943Z,2.6
2017-08-09T02:08:48.446Z,2.6
2017-08-09T02:09:50.947Z,2.6
2017-08-09T02:10:53.445Z,2.7
2017-08-09T02:11:55.937Z,2.6
2017-08-09T02:12:58.427Z,2.6
2017-08-09T02:14:00.906Z,2.6
2017-08-09T02:15:03.407Z,2.7
2017-08-09T02:16:05.899Z,2.6
2017-08-09T02:17:08.720Z,2.6
2017-08-09T02:18:11.907Z,2.6
2017-08-09T02:19:14.750Z,2.5
2017-08-09T02:20:17.246Z,2.6
2017-08-09T02:21:20.449Z,2.7
2017-08-09T02:22:23.221Z,2.6
2017-08-09T02:23:25.732Z,2.6
2017-08-09T02:24:28.231Z,2.6
2017-08-09T02:25:31.082Z,2.6
2017-08-09T02:26:33.569Z,2.6
2017-08-09T02:27:36.075Z,2.6
2017-08-09T02:28:38.695Z,2.6
2017-08-09T02:29:41.184Z,2.6
2017-08-09T02:30:43.690Z,2.6
2017-08-09T02:31:46.854Z,2.6
2017-08-09T02:32:49.352Z,2.6
2017-08-09T02:33:52.571Z,2.6
2017-08-09T02:34:55.429Z,2.6
2017-08-09T02:35:57.940Z,2.6
2017-08-09T02:37:00.432Z,2.6
2017-08-09T02:38:02.929Z,2.5
2017-08-09T02:39:06.124Z,2.5
2017-08-09T02:40:08.956Z,2.5
2017-08-09T02:41:12.132Z,2.5
2017-08-09T02:42:15.334Z,2.5
2017-08-09T02:43:17.832Z,2.5
2017-08-09T02:44:20.327Z,2.5
2017-08-09T02:45:22.834Z,2.6
2017-08-09T02:46:25.332Z,2.5
2017-08-09T02:47:28.369Z,2.6
2017-08-09T02:48:31.576Z,2.6
2017-08-09T02:49:34.071Z,2.6
2017-08-09T02:50:36.550Z,2.5
2017-08-09T02:51:39.049Z,2.6
2017-08-09T02:52:41.897Z,2.6
2017-08-09T02:53:44.396Z,2.6
2017-08-09T02:54:47.226Z,2.5
2017-08-09T02:55:49.707Z,2.5
2017-08-09T02:56:52.461Z,2.5
2017-08-09T02:57:54.963Z,2.5
2017-08-09T02:58:57.456Z,2.5
2017-08-09T02:59:59.958Z,2.5
2017-08-09T03:01:02.793Z,2.5
2017-08-09T03:02:05.776Z,2.5
2017-08-09T03:03:08.591Z,2.5
2017-08-09T03:04:11.419Z,2.5
2017-08-09T03:05:13.919Z,2.5
2017-08-09T03:06:16.986Z,2.5
2017-08-09T03:07:19.480Z,2.5
2017-08-09T03:08:22.019Z,2.5
2017-08-09T03:09:24.517Z,2.5
2017-08-09T03:10:27.039Z,2.5
2017-08-09T03:11:29.628Z,2.5
2017-08-09T03:12:32.443Z,2.5
2017-08-09T03:13:35.288Z,2.5
2017-08-09T03:14:37.754Z,2.5
2017-08-09T03:15:40.437Z,2.6
2017-08-09T03:16:42.926Z,2.5
2017-08-09T03:17:45.438Z,2.6
2017-08-09T03:18:48.260Z,2.5
2017-08-09T03:19:50.756Z,2.6
2017-08-09T03:20:53.788Z,2.5
2017-08-09T03:21:56.628Z,2.4
2017-08-09T03:22:59.123Z,2.4
2017-08-09T03:24:01.955Z,2.5
2017-08-09T03:25:04.904Z,2.5
2017-08-09T03:26:07.394Z,2.5
2017-08-09T03:27:09.875Z,2.5
2017-08-09T03:28:12.381Z,2.4
2017-08-09T03:29:15.240Z,2.5
2017-08-09T03:30:17.893Z,2.4
2017-08-09T03:31:20.452Z,2.4
2017-08-09T03:32:22.960Z,2.5
2017-08-09T03:33:25.451Z,2.4
2017-08-09T03:34:27.952Z,2.4
2017-08-09T03:35:30.461Z,2.5
2017-08-09T03:36:33.304Z,2.4
2017-08-09T03:37:36.198Z,2.4
2017-08-09T03:38:38.708Z,2.4
2017-08-09T03:39:41.537Z,2.5
2017-08-09T03:40:44.032Z,2.4
2017-08-09T03:41:46.631Z,2.4
2017-08-09T03:42:49.134Z,2.4
2017-08-09T03:43:51.630Z,2.5
2017-08-09T03:44:54.469Z,2.4
2017-08-09T03:45:56.949Z,2.5
2017-08-09T03:46:59.454Z,2.4
2017-08-09T03:48:02.292Z,2.4
2017-08-09T03:49:04.798Z,2.3
2017-08-09T03:50:07.286Z,2.4
2017-08-09T03:51:10.458Z,2.4
2017-08-09T03:52:12.948Z,2.5
2017-08-09T03:53:15.456Z,2.4
2017-08-09T03:54:18.291Z,2.4
2017-08-09T03:55:20.800Z,2.4
2017-08-09T03:56:23.620Z,2.5
2017-08-09T03:57:26.113Z,2.4
2017-08-09T03:58:28.934Z,2.4
2017-08-09T03:59:31.426Z,2.4
2017-08-09T04:00:33.966Z,2.4
2017-08-09T04:01:36.448Z,2.4
2017-08-09T04:02:38.922Z,2.4
2017-08-09T04:03:41.766Z,2.4
2017-08-09T04:04:44.266Z,2.4
2017-08-09T04:05:47.136Z,2.4
2017-08-09T04:06:49.620Z,2.4
2017-08-09T04:07:52.437Z,2.3
2017-08-09T04:08:54.925Z,2.4
2017-08-09T04:09:57.453Z,2.3
2017-08-09T04:11:00.634Z,2.4
2017-08-09T04:12:03.813Z,2.4
2017-08-09T04:13:06.308Z,2.4
2017-08-09T04:14:09.129Z,2.3
2017-08-09T04:15:11.618Z,2.3
2017-08-09T04:16:14.109Z,2.4
2017-08-09T04:17:16.595Z,2.4
2017-08-09T04:18:19.094Z,2.3
2017-08-09T04:19:21.593Z,2.3
2017-08-09T04:20:24.405Z,2.4
2017-08-09T04:21:28.279Z,2.3
2017-08-09T04:22:31.117Z,2.3
2017-08-09T04:23:34.291Z,2.3
2017-08-09T04:24:36.788Z,2.3
2017-08-09T04:25:39.275Z,2.3
2017-08-09T04:26:41.757Z,2.4
2017-08-09T04:27:44.246Z,2.4
2017-08-09T04:28:46.745Z,2.3
2017-08-09T04:29:49.257Z,2.3
2017-08-09T04:30:52.075Z,2.3
2017-08-09T04:31:54.563Z,2.3
2017-08-09T04:32:57.408Z,2.3
2017-08-09T04:33:59.952Z,2.3
2017-08-09T04:35:02.779Z,2.3
2017-08-09T04:36:05.288Z,2.3
2017-08-09T04:37:07.769Z,2.3
2017-08-09T04:38:10.250Z,2.3
2017-08-09T04:39:13.097Z,2.3
2017-08-09T04:40:15.594Z,2.3
2017-08-09T04:41:18.410Z,2.3
2017-08-09T04:42:20.917Z,2.3
2017-08-09T04:43:23.427Z,2.3
2017-08-09T04:44:26.289Z,2.3
2017-08-09T04:45:29.115Z,2.3
2017-08-09T04:46:31.616Z,2.3
2017-08-09T04:47:34.449Z,2.3
2017-08-09T04:48:36.972Z,2.3
2017-08-09T04:49:39.796Z,2.3
2017-08-09T04:50:42.300Z,2.3
2017-08-09T04:51:44.793Z,2.3
2017-08-09T04:52:47.286Z,2.2
2017-08-09T04:53:49.764Z,2.3
2017-08-09T04:54:52.286Z,2.2
2017-08-09T04:55:55.125Z,2.3
2017-08-09T04:56:57.606Z,2.3
2017-08-09T04:58:00.107Z,2.2
2017-08-09T04:59:02.952Z,2.3
2017-08-09T05:00:05.438Z,2.1
2017-08-09T05:01:07.967Z,2.3
2017-08-09T05:02:10.484Z,2.3
2017-08-09T05:03:12.977Z,2.3
2017-08-09T05:04:15.465Z,2.3
2017-08-09T05:05:18.299Z,2.3
2017-08-09T05:06:20.773Z,2.3
2017-08-09T05:07:23.641Z,2.3
2017-08-09T05:08:26.142Z,2.3
2017-08-09T05:09:28.961Z,2.3
2017-08-09T05:10:32.140Z,2.3
2017-08-09T05:11:34.978Z,2.3
2017-08-09T05:12:37.798Z,2.3
2017-08-09T05:13:40.640Z,2.3
2017-08-09T05:14:43.141Z,2.3
2017-08-09T05:15:45.970Z,2.2
2017-08-09T05:16:48.476Z,2.3
2017-08-09T05:17:50.963Z,2.3
2017-08-09T05:18:53.445Z,2.3
2017-08-09T05:19:56.283Z,2.3
2017-08-09T05:20:58.778Z,2.3
2017-08-09T05:22:01.627Z,2.3
2017-08-09T05:23:04.465Z,2.3
2017-08-09T05:24:07.311Z,2.3
2017-08-09T05:25:09.802Z,2.3
2017-08-09T05:26:12.321Z,2.3
2017-08-09T05:27:14.797Z,2.3
2017-08-09T05:28:17.295Z,2.3
2017-08-09T05:29:19.786Z,2.3
2017-08-09T05:30:22.967Z,2.3
2017-08-09T05:31:25.463Z,2.3
2017-08-09T05:32:27.956Z,2.3
2017-08-09T05:33:30.449Z,2.3
2017-08-09T05:34:32.941Z,2.3
2017-08-09T05:35:35.814Z,2.3
2017-08-09T05:36:38.643Z,2.3
2017-08-09T05:37:41.134Z,2.3
2017-08-09T05:38:43.650Z,2.3
2017-08-09T05:39:46.491Z,2.3
2017-08-09T05:40:49.680Z,2.3
2017-08-09T05:41:52.189Z,2.3
2017-08-09T05:42:54.668Z,2.3
2017-08-09T05:43:57.492Z,2.4
2017-08-09T05:44:59.998Z,2.3
2017-08-09T05:46:02.833Z,2.3
2017-08-09T05:47:05.313Z,2.4
2017-08-09T05:48:08.525Z,2.3
2017-08-09T05:49:11.030Z,2.3
2017-08-09T05:50:13.536Z,2.3
2017-08-09T05:51:16.043Z,2.4
2017-08-09T05:52:18.531Z,2.3
2017-08-09T05:53:21.041Z,2.3
2017-08-09T05:54:23.552Z,2.3
2017-08-09T05:55:26.040Z,2.4
2017-08-09T05:56:28.864Z,2.3
2017-08-09T05:57:31.721Z,2.4
2017-08-09T05:58:34.567Z,2.4
2017-08-09T05:59:37.043Z,2.4
2017-08-09T06:00:39.890Z,2.4
2017-08-09T06:01:42.383Z,2.4
2017-08-09T06:02:44.873Z,2.4
2017-08-09T06:03:47.722Z,2.3
2017-08-09T06:04:50.211Z,2.4
2017-08-09T06:05:52.706Z,2.4
2017-08-09T06:06:55.208Z,2.4
2017-08-09T06:07:57.692Z,2.4
2017-08-09T06:09:00.869Z,2.4
2017-08-09T06:10:03.708Z,2.4
2017-08-09T06:11:06.205Z,2.4
2017-08-09T06:12:08.699Z,2.5
2017-08-09T06:13:11.197Z,2.4
2017-08-09T06:14:14.032Z,2.4
2017-08-09T06:15:16.526Z,2.4
2017-08-09T06:16:19.016Z,2.4
2017-08-09T06:17:21.851Z,2.4
2017-08-09T06:18:24.350Z,2.4
2017-08-09T06:19:26.863Z,2.4
2017-08-09T06:20:29.374Z,2.4
2017-08-09T06:21:32.203Z,2.4
2017-08-09T06:22:34.705Z,2.4
2017-08-09T06:23:37.552Z,2.4
2017-08-09T06:24:40.030Z,2.4
2017-08-09T06:25:42.898Z,2.4
2017-08-09T06:26:45.732Z,2.4
2017-08-09T06:27:48.561Z,2.4
2017-08-09T06:28:51.058Z,2.4
2017-08-09T06:29:53.896Z,2.4
2017-08-09T06:30:56.402Z,2.4
2017-08-09T06:31:58.900Z,2.4
2017-08-09T06:33:01.730Z,2.4
2017-08-09T06:34:04.210Z,2.4
2017-08-09T06:35:06.715Z,2.4
2017-08-09T06:36:09.194Z,2.4
2017-08-09T06:37:11.682Z,2.4
2017-08-09T06:38:14.178Z,2.4
2017-08-09T06:39:17.015Z,2.4
2017-08-09T06:40:19.868Z,2.4
2017-08-09T06:41:22.379Z,2.3
2017-08-09T06:42:24.862Z,2.4
2017-08-09T06:43:27.361Z,2.4
2017-08-09T06:44:29.862Z,2.4
2017-08-09T06:45:32.358Z,2.4
2017-08-09T06:46:35.205Z,2.4
2017-08-09T06:47:37.687Z,2.4
2017-08-09T06:48:40.172Z,2.5
2017-08-09T06:49:42.674Z,2.5
2017-08-09T06:50:45.160Z,2.5
2017-08-09T06:51:47.646Z,2.5
2017-08-09T06:52:50.486Z,2.5
2017-08-09T06:53:53.309Z,2.5
2017-08-09T06:54:56.142Z,2.4
2017-08-09T06:55:58.635Z,2.4
2017-08-09T06:57:01.501Z,2.5
2017-08-09T06:58:04.338Z,2.5
2017-08-09T06:59:06.813Z,2.5
2017-08-09T07:00:09.312Z,2.5
2017-08-09T07:01:11.809Z,2.5
2017-08-09T07:02:14.308Z,2.4
2017-08-09T07:03:16.832Z,2.5
2017-08-09T07:04:19.329Z,2.5
2017-08-09T07:05:22.175Z,2.5
2017-08-09T07:06:24.685Z,2.5
2017-08-09T07:07:27.171Z,2.5
2017-08-09T07:08:29.670Z,2.6
2017-08-09T07:09:32.158Z,2.6
2017-08-09T07:10:34.662Z,2.5
2017-08-09T07:11:37.509Z,2.6
2017-08-09T07:12:40.343Z,2.5
2017-08-09T07:13:42.831Z,2.6
2017-08-09T07:14:46.022Z,2.6
2017-08-09T07:15:48.540Z,2.6
2017-08-09T07:16:51.414Z,2.6
2017-08-09T07:17:54.227Z,2.6
2017-08-09T07:18:56.717Z,2.7
2017-08-09T07:19:59.204Z,2.6
2017-08-09T07:21:02.405Z,2.6
2017-08-09T07:22:04.888Z,2.7
2017-08-09T07:23:07.381Z,2.7
2017-08-09T07:24:09.875Z,2.7
2017-08-09T07:25:12.698Z,2.8
2017-08-09T07:26:15.205Z,2.7
2017-08-09T07:27:18.373Z,2.8
2017-08-09T07:28:20.864Z,2.8
2017-08-09T07:29:23.365Z,2.9
2017-08-09T07:30:25.847Z,2.8
2017-08-09T07:31:28.685Z,3
2017-08-09T07:32:31.198Z,3
2017-08-09T07:33:33.677Z,3.1
2017-08-09T07:34:36.179Z,3
2017-08-09T07:35:38.999Z,3.1
2017-08-09T07:36:41.825Z,3.1
2017-08-09T07:37:44.315Z,2.9
2017-08-09T07:38:47.165Z,3
2017-08-09T07:39:49.688Z,2.8
2017-08-09T07:40:52.221Z,3
2017-08-09T07:41:55.055Z,3
2017-08-09T07:42:57.565Z,3.1
2017-08-09T07:44:00.068Z,2.9
2017-08-09T07:45:02.891Z,3
2017-08-09T07:46:05.714Z,3
2017-08-09T07:47:08.220Z,3
2017-08-09T07:48:10.699Z,3.1
2017-08-09T07:49:13.189Z,3.1
2017-08-09T07:50:15.691Z,3.2
2017-08-09T07:51:18.200Z,3.1
2017-08-09T07:52:20.700Z,3.2
2017-08-09T07:53:23.191Z,3.2
2017-08-09T07:54:25.662Z,3.3
2017-08-09T07:55:28.199Z,3.3
2017-08-09T07:56:30.734Z,3.3
2017-08-09T07:57:33.240Z,3.2
2017-08-09T07:58:36.077Z,3.3
2017-08-09T07:59:38.587Z,3.2
2017-08-09T08:00:41.080Z,3.2
2017-08-09T08:01:43.586Z,3.1
2017-08-09T08:02:46.091Z,3.1
2017-08-09T08:03:48.594Z,3.1
2017-08-09T08:04:51.440Z,3.2
2017-08-09T08:05:53.953Z,3.1
2017-08-09T08:06:56.449Z,3
2017-08-09T08:07:58.939Z,3.1
2017-08-09T08:09:01.777Z,3
2017-08-09T08:10:04.275Z,3
2017-08-09T08:11:07.107Z,2.8
2017-08-09T08:12:09.957Z,2.8
2017-08-09T08:13:12.785Z,2.9
2017-08-09T08:14:15.289Z,2.8
2017-08-09T08:15:18.142Z,2.8
2017-08-09T08:16:20.657Z,2.9
2017-08-09T08:17:23.167Z,3.1
2017-08-09T08:18:25.674Z,2.8
2017-08-09T08:19:28.171Z,2.9
2017-08-09T08:20:30.691Z,2.8
2017-08-09T08:21:33.184Z,2.8
2017-08-09T08:22:35.675Z,2.8
2017-08-09T08:23:38.181Z,2.8
2017-08-09T08:24:40.664Z,2.9
2017-08-09T08:25:43.166Z,2.8
2017-08-09T08:26:45.670Z,2.9
2017-08-09T08:27:48.497Z,2.9
2017-08-09T08:28:50.997Z,2.8
2017-08-09T08:29:53.509Z,2.9
2017-08-09T08:30:56.003Z,2.8
2017-08-09T08:31:58.484Z,2.9
2017-08-09T08:33:00.999Z,2.8
2017-08-09T08:34:03.504Z,2.9
2017-08-09T08:35:06.008Z,2.9
2017-08-09T08:36:08.511Z,2.9
2017-08-09T08:37:11.021Z,2.9
2017-08-09T08:38:14.531Z,2.9
2017-08-09T08:39:17.075Z,2.9
2017-08-09T08:40:19.926Z,2.9
2017-08-09T08:41:22.437Z,2.9
2017-08-09T08:42:24.952Z,2.9
2017-08-09T08:43:27.465Z,2.9
2017-08-09T08:44:29.979Z,3
2017-08-09T08:45:32.490Z,3
2017-08-09T08:46:34.976Z,3
2017-08-09T08:47:37.841Z,3
2017-08-09T08:48:40.344Z,3.1
2017-08-09T08:49:42.853Z,3
2017-08-09T08:50:45.348Z,3
2017-08-09T08:51:47.848Z,3
2017-08-09T08:52:50.347Z,3
2017-08-09T08:53:52.859Z,3.1
2017-08-09T08:54:55.367Z,3.1
2017-08-09T08:55:58.201Z,3
2017-08-09T08:57:01.048Z,3.1
2017-08-09T08:58:03.553Z,3.1
2017-08-09T08:59:06.400Z,3
2017-08-09T09:00:08.902Z,3.1
2017-08-09T09:01:11.411Z,3.1
2017-08-09T09:02:14.262Z,3.1
2017-08-09T09:03:16.777Z,3.1
2017-08-09T09:04:19.276Z,3.2
2017-08-09T09:05:21.755Z,3.1
2017-08-09T09:06:24.250Z,3.1
2017-08-09T09:07:26.748Z,3.2
2017-08-09T09:08:29.252Z,3.2
2017-08-09T09:09:31.765Z,3.1
2017-08-09T09:10:34.588Z,3.2
2017-08-09T09:11:37.088Z,3.1
2017-08-09T09:12:39.948Z,3.2
2017-08-09T09:13:42.455Z,3.1
2017-08-09T09:14:44.971Z,3.2
2017-08-09T09:15:47.495Z,3.2
2017-08-09T09:16:50.341Z,3.2
2017-08-09T09:17:53.201Z,3.3
2017-08-09T09:18:55.724Z,3.2
2017-08-09T09:19:58.559Z,3.3
2017-08-09T09:21:01.467Z,3.3
2017-08-09T09:22:04.666Z,3.3
2017-08-09T09:23:07.194Z,3.3
2017-08-09T09:24:09.691Z,3.3
2017-08-09T09:25:12.195Z,3.3
2017-08-09T09:26:14.695Z,3.5
2017-08-09T09:27:17.193Z,3.3
2017-08-09T09:28:19.684Z,3.5
2017-08-09T09:29:22.543Z,3.5
2017-08-09T09:30:25.051Z,3.4
2017-08-09T09:31:27.551Z,3.5
2017-08-09T09:32:30.416Z,3.4
2017-08-09T09:33:32.924Z,3.5
2017-08-09T09:34:35.772Z,3.5
2017-08-09T09:35:38.297Z,3.5
2017-08-09T09:36:41.134Z,3.5
2017-08-09T09:37:43.647Z,3.5
2017-08-09T09:38:46.178Z,3.4
2017-08-09T09:39:48.677Z,3.5
2017-08-09T09:40:51.198Z,3.6
2017-08-09T09:41:53.694Z,3.5
2017-08-09T09:42:56.556Z,3.6
2017-08-09T09:43:59.059Z,3.7
2017-08-09T09:45:02.291Z,3.6
2017-08-09T09:46:04.847Z,3.7
2017-08-09T09:47:07.386Z,3.7
2017-08-09T09:48:10.605Z,3.7
2017-08-09T09:49:13.454Z,3.7
2017-08-09T09:50:15.989Z,3.7
2017-08-09T09:51:18.859Z,3.9
2017-08-09T09:52:21.382Z,4
2017-08-09T09:53:23.890Z,3.9
2017-08-09T09:54:26.437Z,3.9
2017-08-09T09:55:29.334Z,4
2017-08-09T09:56:31.876Z,4
2017-08-09T09:57:34.429Z,4
2017-08-09T09:58:36.936Z,3.9
2017-08-09T09:59:40.177Z,3.8
2017-08-09T10:00:43.019Z,3.8
2017-08-09T10:01:45.860Z,3.8
2017-08-09T10:02:48.438Z,3.8
2017-08-09T10:03:50.953Z,3.9
2017-08-09T10:04:53.478Z,3.9
2017-08-09T10:05:56.087Z,3.9
2017-08-09T10:06:58.618Z,3.8
2017-08-09T10:08:01.213Z,3.8
2017-08-09T10:09:04.222Z,3.8
2017-08-09T10:10:07.067Z,3.8
2017-08-09T10:11:09.946Z,3.9
2017-08-09T10:12:12.479Z,3.9
2017-08-09T10:13:14.990Z,3.9
2017-08-09T10:14:17.904Z,3.8
2017-08-09T10:15:20.768Z,3.8
2017-08-09T10:16:23.612Z,3.9
2017-08-09T10:17:26.190Z,3.9
2017-08-09T10:18:29.031Z,3.9
2017-08-09T10:19:31.744Z,3.8
2017-08-09T10:20:34.595Z,3.9
2017-08-09T10:21:37.835Z,3.8
2017-08-09T10:22:40.353Z,3.8
2017-08-09T10:23:42.926Z,3.9
2017-08-09T10:24:45.547Z,3.8
2017-08-09T10:25:48.119Z,3.8
2017-08-09T10:26:50.960Z,4
2017-08-09T10:27:53.459Z,3.9
2017-08-09T10:28:55.981Z,3.9
2017-08-09T10:29:58.514Z,3.9
2017-08-09T10:31:01.495Z,3.9
2017-08-09T10:32:04.409Z,4
2017-08-09T10:33:07.376Z,4
2017-08-09T10:34:09.995Z,4
2017-08-09T10:35:12.630Z,4
2017-08-09T10:36:15.113Z,4
2017-08-09T10:37:17.748Z,4.1
2017-08-09T10:38:20.606Z,4
2017-08-09T10:39:23.146Z,3.9
2017-08-09T10:40:25.711Z,4.1
2017-08-09T10:41:28.199Z,4.1
2017-08-09T10:42:30.913Z,4.1
2017-08-09T10:43:33.460Z,4.2
2017-08-09T10:44:35.977Z,4.1
2017-08-09T10:45:38.498Z,4.1
2017-08-09T10:46:41.008Z,4.1
2017-08-09T10:47:43.643Z,4.1
2017-08-09T10:48:46.187Z,4
2017-08-09T10:49:49.465Z,4.1
2017-08-09T10:50:51.970Z,4.1
2017-08-09T10:51:54.927Z,4
2017-08-09T10:52:57.461Z,4.1
2017-08-09T10:53:59.974Z,4
2017-08-09T10:55:02.872Z,4
2017-08-09T10:56:05.733Z,4
2017-08-09T10:57:08.395Z,4.1
2017-08-09T10:58:11.310Z,4.2
2017-08-09T10:59:13.958Z,4.3
2017-08-09T11:00:16.897Z,4.2
2017-08-09T11:01:20.677Z,4.2
2017-08-09T11:02:23.336Z,4.2
2017-08-09T11:03:27.136Z,4.1
2017-08-09T11:04:29.702Z,4.2
2017-08-09T11:05:32.330Z,4
2017-08-09T11:06:34.898Z,4.1
2017-08-09T11:07:37.489Z,4.2
2017-08-09T11:08:40.500Z,4.2
2017-08-09T11:09:43.664Z,4.2
2017-08-09T11:10:46.328Z,4.4
2017-08-09T11:11:49.824Z,4.3
2017-08-09T11:12:52.780Z,4.3
2017-08-09T11:13:56.507Z,4.3
2017-08-09T11:14:59.028Z,4.2
2017-08-09T11:16:01.790Z,4.2
2017-08-09T11:17:05.039Z,4.2
2017-08-09T11:18:08.014Z,4.2
2017-08-09T11:19:10.659Z,4.1
2017-08-09T11:20:13.714Z,4.1
2017-08-09T11:21:16.263Z,4.1
2017-08-09T11:22:18.774Z,4.2
2017-08-09T11:23:21.445Z,4.2
2017-08-09T11:24:23.951Z,4.1
2017-08-09T11:25:26.456Z,4.2
2017-08-09T11:26:29.295Z,4.1
2017-08-09T11:27:31.803Z,4
2017-08-09T11:28:34.302Z,4.1
2017-08-09T11:29:36.802Z,4.1
2017-08-09T11:30:39.309Z,4
2017-08-09T11:31:42.196Z,4
2017-08-09T11:32:44.782Z,4.1
2017-08-09T11:33:47.775Z,4.1
2017-08-09T11:34:50.755Z,3.9
2017-08-09T11:35:54.044Z,4.1
2017-08-09T11:36:57.494Z,4
2017-08-09T11:38:00.022Z,4
2017-08-09T11:39:02.854Z,4
2017-08-09T11:40:06.158Z,4.1
2017-08-09T11:41:08.965Z,4.1
2017-08-09T11:42:12.191Z,4
2017-08-09T11:43:14.923Z,4
2017-08-09T11:44:17.943Z,4.1
2017-08-09T11:45:20.935Z,4
2017-08-09T11:46:23.582Z,4.2
2017-08-09T11:47:26.591Z,4.1
2017-08-09T11:48:29.276Z,4
2017-08-09T11:49:32.007Z,4.1
2017-08-09T11:50:35.238Z,4.1
2017-08-09T11:51:38.082Z,4.2
2017-08-09T11:52:40.609Z,4.3
2017-08-09T11:53:43.116Z,4.1
2017-08-09T11:54:45.969Z,4.2
2017-08-09T11:55:48.484Z,4.2
2017-08-09T11:56:51.347Z,4.2
2017-08-09T11:57:54.517Z,4.2
2017-08-09T11:58:57.035Z,4.1
2017-08-09T11:59:59.534Z,4.2
2017-08-09T12:01:02.042Z,4.2
2017-08-09T12:02:04.554Z,4.2
2017-08-09T12:03:07.389Z,4.1
2017-08-09T12:04:09.887Z,4.2
2017-08-09T12:05:12.385Z,4.1
2017-08-09T12:06:14.999Z,4.1
2017-08-09T12:07:18.180Z,4.2
2017-08-09T12:08:20.679Z,4.1
2017-08-09T12:09:23.177Z,4.2
2017-08-09T12:10:26.397Z,4.1
2017-08-09T12:11:28.894Z,4.1
2017-08-09T12:12:31.729Z,4
2017-08-09T12:13:34.704Z,4.1
2017-08-09T12:14:37.207Z,3.9
2017-08-09T12:15:40.390Z,4.1
2017-08-09T12:16:43.240Z,4.1
2017-08-09T12:17:46.126Z,4
2017-08-09T12:18:48.974Z,4
2017-08-09T12:19:51.481Z,4.1
2017-08-09T12:20:54.945Z,4
2017-08-09T12:21:57.823Z,4.1
2017-08-09T12:23:00.337Z,4.1
2017-08-09T12:24:04.187Z,4.1
2017-08-09T12:25:07.346Z,4
2017-08-09T12:26:09.855Z,4
2017-08-09T12:27:12.635Z,4.1
2017-08-09T12:28:15.142Z,3.9
2017-08-09T12:29:17.994Z,4.1
2017-08-09T12:30:20.496Z,4
2017-08-09T12:31:23.113Z,3.9
2017-08-09T12:32:26.282Z,4
2017-08-09T12:33:28.783Z,4.1
2017-08-09T12:34:31.273Z,4
2017-08-09T12:35:33.784Z,3.8
2017-08-09T12:36:36.964Z,4
2017-08-09T12:37:39.863Z,4
2017-08-09T12:38:42.365Z,3.9
2017-08-09T12:39:44.900Z,4
2017-08-09T12:40:48.093Z,3.9
2017-08-09T12:41:50.956Z,3.9
2017-08-09T12:42:53.792Z,3.9
2017-08-09T12:43:56.298Z,3.8
2017-08-09T12:44:58.818Z,4
2017-08-09T12:46:01.664Z,3.9
2017-08-09T12:47:04.522Z,3.9
2017-08-09T12:48:07.055Z,3.9
2017-08-09T12:49:09.541Z,3.9
2017-08-09T12:50:12.047Z,3.9
2017-08-09T12:51:14.547Z,4
2017-08-09T12:52:17.075Z,3.9
2017-08-09T12:53:19.586Z,3.9
2017-08-09T12:54:22.424Z,3.9
2017-08-09T12:55:25.255Z,3.9
2017-08-09T12:56:27.766Z,3.9
2017-08-09T12:57:30.292Z,4
2017-08-09T12:58:32.803Z,3.9
2017-08-09T12:59:35.287Z,4
2017-08-09T13:00:37.799Z,3.9
2017-08-09T13:01:40.293Z,4
2017-08-09T13:02:42.799Z,4
2017-08-09T13:03:45.313Z,4.1
2017-08-09T13:04:48.140Z,3.9
2017-08-09T13:05:50.638Z,4
2017-08-09T13:06:53.485Z,4
2017-08-09T13:07:55.971Z,4
2017-08-09T13:08:58.824Z,4
2017-08-09T13:10:01.681Z,3.9
2017-08-09T13:11:04.510Z,3.9
2017-08-09T13:12:07.362Z,4
2017-08-09T13:13:10.209Z,3.9
2017-08-09T13:14:12.698Z,4
2017-08-09T13:15:15.210Z,3.9
2017-08-09T13:16:18.046Z,3.9
2017-08-09T13:17:20.542Z,4
2017-08-09T13:18:23.052Z,3.9
2017-08-09T13:19:25.545Z,4
2017-08-09T13:20:28.048Z,4
2017-08-09T13:21:30.571Z,4
2017-08-09T13:22:33.083Z,4
2017-08-09T13:23:35.568Z,3.9
2017-08-09T13:24:38.063Z,4
2017-08-09T13:25:40.578Z,3.9
2017-08-09T13:26:43.766Z,4
2017-08-09T13:27:46.285Z,4
2017-08-09T13:28:49.141Z,4
2017-08-09T13:29:51.648Z,4
2017-08-09T13:30:54.499Z,4.1
2017-08-09T13:31:57.010Z,4
2017-08-09T13:32:59.503Z,4
2017-08-09T13:34:02.014Z,4
2017-08-09T13:35:05.242Z,4
2017-08-09T13:36:08.070Z,4
2017-08-09T13:37:10.579Z,4
2017-08-09T13:38:13.112Z,4
2017-08-09T13:39:16.641Z,3.9
2017-08-09T13:40:19.167Z,4
2017-08-09T13:41:21.683Z,4
2017-08-09T13:42:24.200Z,3.9
2017-08-09T13:43:27.403Z,4
2017-08-09T13:44:29.911Z,3.9
2017-08-09T13:45:33.127Z,4
2017-08-09T13:46:35.639Z,4
2017-08-09T13:47:38.127Z,4
2017-08-09T13:48:40.628Z,4
2017-08-09T13:49:43.467Z,4
2017-08-09T13:50:45.961Z,4
2017-08-09T13:51:48.464Z,4.1
2017-08-09T13:52:50.967Z,4.1
2017-08-09T13:53:53.476Z,4.1
2017-08-09T13:54:55.979Z,4.1
2017-08-09T13:55:58.497Z,4.2
2017-08-09T13:57:01.356Z,4.3
2017-08-09T13:58:04.555Z,4.3
2017-08-09T13:59:07.070Z,4.2
2017-08-09T14:00:10.267Z,4.3
2017-08-09T14:01:13.463Z,4.2
2017-08-09T14:02:16.312Z,4.3
2017-08-09T14:03:18.829Z,4.3
2017-08-09T14:04:21.683Z,4.4
2017-08-09T14:05:24.190Z,4.3
2017-08-09T14:06:26.700Z,4.4
2017-08-09T14:07:29.536Z,4.4
2017-08-09T14:08:32.736Z,4.4
2017-08-09T14:09:35.243Z,4.5
2017-08-09T14:10:37.764Z,4.5
2017-08-09T14:11:40.262Z,4.6
2017-08-09T14:12:42.793Z,4.5
2017-08-09T14:13:45.294Z,4.5
2017-08-09T14:14:48.135Z,4.5
2017-08-09T14:15:50.650Z,4.6
2017-08-09T14:16:53.491Z,4.6
2017-08-09T14:17:55.993Z,4.5
2017-08-09T14:18:58.531Z,4.5
2017-08-09T14:20:01.392Z,4.6
2017-08-09T14:21:04.312Z,4.7
2017-08-09T14:22:07.517Z,4.7
2017-08-09T14:23:10.036Z,4.6
2017-08-09T14:24:12.906Z,4.7
2017-08-09T14:25:15.779Z,4.7
2017-08-09T14:26:18.615Z,4.7
2017-08-09T14:27:21.126Z,4.7
2017-08-09T14:28:23.632Z,4.7
2017-08-09T14:29:26.461Z,4.6